createdAt,value
2023-04-18T00:01:10.890Z,13.70
2023-04-18T00:03:41.011Z,14.20
2023-04-18T00:06:08.218Z,12.00
2023-04-18T00:08:35.027Z,12.00
2023-04-18T00:11:01.829Z,13.30
2023-04-18T00:13:28.659Z,12.00
2023-04-18T00:15:55.699Z,13.30
2023-04-18T00:18:26.338Z,12.20
2023-04-18T00:20:54.007Z,13.30
2023-04-18T00:23:21.669Z,11.20
2023-04-18T00:25:49.031Z,11.40
2023-04-18T00:28:15.940Z,14.60
2023-04-18T00:30:42.940Z,11.60
2023-04-18T00:33:09.987Z,11.80
2023-04-18T00:35:38.266Z,13.60
2023-04-18T00:38:05.209Z,12.90
2023-04-18T00:40:31.967Z,14.20
2023-04-18T00:43:01.018Z,13.40
2023-04-18T00:45:27.901Z,10.70
2023-04-18T00:47:56.022Z,12.50
2023-04-18T00:50:23.960Z,12.20
2023-04-18T00:52:52.236Z,13.30
2023-04-18T00:55:19.075Z,14.90
2023-04-18T00:57:46.288Z,12.00
2023-04-18T01:00:13.758Z,13.20
2023-04-18T01:02:41.310Z,12.00
2023-04-18T01:05:08.863Z,12.20
2023-04-18T01:07:37.636Z,12.70
2023-04-18T01:10:05.180Z,12.50
2023-04-18T01:12:32.052Z,12.00
2023-04-18T01:15:00.879Z,12.00
2023-04-18T01:17:28.466Z,14.40
2023-04-18T01:19:56.965Z,11.40
2023-04-18T01:22:24.228Z,12.70
2023-04-18T01:24:51.063Z,15.40
2023-04-18T01:27:18.030Z,12.00
2023-04-18T01:29:45.071Z,12.80
2023-04-18T01:32:11.869Z,12.50
2023-04-18T01:34:38.775Z,12.50
2023-04-18T01:37:05.628Z,12.10
2023-04-18T01:39:32.473Z,11.60
2023-04-18T01:42:01.566Z,12.00
2023-04-18T01:44:28.411Z,13.40
2023-04-18T01:46:57.947Z,12.40
2023-04-18T01:49:24.874Z,13.40
2023-04-18T01:51:51.723Z,13.30
2023-04-18T01:54:18.493Z,13.30
2023-04-18T01:56:45.518Z,13.90
2023-04-18T01:59:12.270Z,14.70
2023-04-18T02:01:39.081Z,12.30
2023-04-18T02:04:05.989Z,11.90
2023-04-18T02:06:32.870Z,11.90
2023-04-18T02:08:59.758Z,14.10
2023-04-18T02:11:26.587Z,13.60
2023-04-18T02:13:55.808Z,13.60
2023-04-18T02:16:25.011Z,12.40
2023-04-18T02:18:52.677Z,12.90
2023-04-18T02:21:19.531Z,10.10
2023-04-18T02:23:46.596Z,12.00
2023-04-18T02:26:13.460Z,17.80
2023-04-18T02:28:43.234Z,11.40
2023-04-18T02:31:15.002Z,10.90
2023-04-18T02:33:43.579Z,10.80
2023-04-18T02:36:12.107Z,12.60
2023-04-18T02:38:39.012Z,12.20
2023-04-18T02:41:05.864Z,14.30
2023-04-18T02:43:33.167Z,11.50
2023-04-18T02:45:59.943Z,13.80
2023-04-18T02:48:26.947Z,13.00
2023-04-18T02:50:53.669Z,12.00
2023-04-18T02:53:24.078Z,12.70
2023-04-18T02:55:51.133Z,12.70
2023-04-18T02:58:17.851Z,12.40
2023-04-18T03:00:47.275Z,12.20
2023-04-18T03:03:14.168Z,11.70
2023-04-18T03:05:41.191Z,12.70
2023-04-18T03:08:08.432Z,12.70
2023-04-18T03:10:37.634Z,11.60
2023-04-18T03:13:04.495Z,12.40
2023-04-18T03:15:31.418Z,13.30
2023-04-18T03:17:59.039Z,11.50
2023-04-18T03:20:25.897Z,12.40
2023-04-18T03:22:52.907Z,15.70
2023-04-18T03:25:19.698Z,12.90
2023-04-18T03:27:46.603Z,14.90
2023-04-18T03:30:13.522Z,11.50
2023-04-18T03:32:42.465Z,12.90
2023-04-18T03:35:09.803Z,12.40
2023-04-18T03:37:36.857Z,15.10
2023-04-18T03:40:05.403Z,11.80
2023-04-18T03:42:32.210Z,15.00
2023-04-18T03:45:02.356Z,14.50
2023-04-18T03:47:31.651Z,13.70
2023-04-18T03:49:58.433Z,11.90
2023-04-18T03:52:25.848Z,13.60
2023-04-18T03:54:55.501Z,13.90
2023-04-18T03:57:22.247Z,16.20
2023-04-18T03:59:49.132Z,13.40
2023-04-18T04:02:16.339Z,15.10
2023-04-18T04:04:43.271Z,13.00
2023-04-18T04:07:10.086Z,15.40
2023-04-18T04:09:36.926Z,13.50
2023-04-18T04:12:04.081Z,16.00
2023-04-18T04:14:30.932Z,13.40
2023-04-18T04:16:57.776Z,13.40
2023-04-18T04:19:24.723Z,13.20
2023-04-18T04:21:51.887Z,14.00
2023-04-18T04:24:18.937Z,14.00
2023-04-18T04:26:46.907Z,14.90
2023-04-18T04:29:13.962Z,15.80
2023-04-18T04:31:40.941Z,14.70
2023-04-18T04:34:09.005Z,12.10
2023-04-18T04:36:35.857Z,12.70
2023-04-18T04:39:04.334Z,12.90
2023-04-18T04:41:31.790Z,13.40
2023-04-18T04:43:59.683Z,12.40
2023-04-18T04:46:29.656Z,13.20
2023-04-18T04:48:57.057Z,13.60
2023-04-18T04:51:23.851Z,15.40
2023-04-18T04:53:50.936Z,13.00
2023-04-18T04:56:17.778Z,14.70
2023-04-18T04:58:45.432Z,14.20
2023-04-18T05:01:13.092Z,14.90
2023-04-18T05:03:40.123Z,15.40
2023-04-18T05:06:07.244Z,14.30
2023-04-18T05:08:34.153Z,13.80
2023-04-18T05:11:02.140Z,14.80
2023-04-18T05:13:28.974Z,13.20
2023-04-18T05:15:55.820Z,12.80
2023-04-18T05:18:22.613Z,16.60
2023-04-18T05:20:49.433Z,13.60
2023-04-18T05:23:16.491Z,13.50
2023-04-18T05:25:43.307Z,15.20
2023-04-18T05:28:10.163Z,14.30
2023-04-18T05:30:37.056Z,16.10
2023-04-18T05:33:03.972Z,14.40
2023-04-18T05:35:31.528Z,16.60
2023-04-18T05:37:59.096Z,15.20
2023-04-18T05:40:27.572Z,14.70
2023-04-18T05:42:54.414Z,14.10
2023-04-18T05:45:21.186Z,13.90
2023-04-18T05:47:48.064Z,13.60
2023-04-18T05:50:14.970Z,14.50
2023-04-18T05:52:41.759Z,14.00
2023-04-18T05:55:09.261Z,16.30
2023-04-18T05:57:41.631Z,14.20
2023-04-18T06:00:11.903Z,13.40
2023-04-18T06:02:38.779Z,13.70
2023-04-18T06:05:06.699Z,13.70
2023-04-18T06:07:36.714Z,13.90
2023-04-18T06:10:05.775Z,12.50
2023-04-18T06:12:32.650Z,13.80
2023-04-18T06:14:59.534Z,14.40
2023-04-18T06:17:26.565Z,14.60
2023-04-18T06:19:53.508Z,13.60
2023-04-18T06:22:20.849Z,13.30
2023-04-18T06:24:47.701Z,13.00
2023-04-18T06:27:27.893Z,11.90
2023-04-18T06:29:57.290Z,13.70
2023-04-18T06:32:24.163Z,12.60
2023-04-18T06:34:51.274Z,12.40
2023-04-18T06:37:20.370Z,12.90
2023-04-18T06:39:47.688Z,15.00
2023-04-18T06:42:14.476Z,13.10
2023-04-18T06:44:43.636Z,13.00
2023-04-18T06:47:11.248Z,13.00
2023-04-18T06:49:38.144Z,13.30
2023-04-18T06:52:05.050Z,10.80
2023-04-18T06:54:31.826Z,13.70
2023-04-18T06:56:59.240Z,11.50
2023-04-18T06:59:26.092Z,11.50
2023-04-18T07:01:55.111Z,11.80
2023-04-18T07:04:22.216Z,12.50
2023-04-18T07:06:49.413Z,10.20
2023-04-18T07:09:16.360Z,11.00
2023-04-18T07:11:43.918Z,11.60
2023-04-18T07:14:12.230Z,9.90
2023-04-18T07:16:39.152Z,10.30
2023-04-18T07:19:06.777Z,10.90
2023-04-18T07:21:33.652Z,13.40
2023-04-18T07:24:00.532Z,10.20
2023-04-18T07:26:27.857Z,9.50
2023-04-18T07:28:54.808Z,10.30
2023-04-18T07:31:21.672Z,9.60
2023-04-18T07:33:48.540Z,9.70
2023-04-18T07:36:15.456Z,9.50
2023-04-18T07:38:42.814Z,8.90
2023-04-18T07:41:09.928Z,10.40
2023-04-18T07:43:38.672Z,11.50
2023-04-18T07:46:06.521Z,10.40
2023-04-18T07:48:33.589Z,8.80
2023-04-18T07:51:04.051Z,10.40
2023-04-18T07:53:30.964Z,11.10
2023-04-18T07:55:57.772Z,8.90
2023-04-18T07:58:27.050Z,9.40
2023-04-18T08:00:53.958Z,12.40
2023-04-18T08:03:23.299Z,9.10
2023-04-18T08:05:51.645Z,9.40
2023-04-18T08:08:19.311Z,12.00
2023-04-18T08:10:46.160Z,8.70
2023-04-18T08:13:16.219Z,9.80
2023-04-18T08:15:43.338Z,9.90
2023-04-18T08:18:10.291Z,9.80
2023-04-18T08:20:37.363Z,9.10
2023-04-18T08:23:08.572Z,8.80
2023-04-18T08:25:37.502Z,9.40
2023-04-18T08:28:04.632Z,9.90
2023-04-18T08:30:31.663Z,9.90
2023-04-18T08:33:01.692Z,11.80
2023-04-18T08:35:28.720Z,8.60
2023-04-18T08:37:55.589Z,10.20
2023-04-18T08:40:22.576Z,9.30
2023-04-18T08:42:49.521Z,9.80
2023-04-18T08:45:18.824Z,9.30
2023-04-18T08:47:45.791Z,8.80
2023-04-18T08:50:12.864Z,11.80
2023-04-18T08:52:40.710Z,8.40
2023-04-18T08:55:09.546Z,9.30
2023-04-18T08:57:36.772Z,9.20
2023-04-18T09:00:10.567Z,9.60
2023-04-18T09:02:42.945Z,10.10
2023-04-18T09:05:21.224Z,8.50
2023-04-18T09:07:49.761Z,8.50
2023-04-18T09:10:34.214Z,7.70
2023-04-18T09:13:05.862Z,9.10
2023-04-18T09:15:32.803Z,8.60
2023-04-18T09:18:02.760Z,8.70
2023-04-18T09:20:38.648Z,8.10
2023-04-18T09:23:14.873Z,8.50
2023-04-18T09:25:44.434Z,9.60
2023-04-18T09:28:32.227Z,9.40
2023-04-18T09:31:11.974Z,9.40
2023-04-18T09:33:43.355Z,8.20
2023-04-18T09:36:23.451Z,9.50
2023-04-18T09:38:55.385Z,7.90
2023-04-18T09:41:23.617Z,8.40
2023-04-18T09:43:50.804Z,7.50
2023-04-18T09:46:17.991Z,8.30
2023-04-18T09:48:45.045Z,9.30
2023-04-18T09:51:15.114Z,7.90
2023-04-18T09:53:48.051Z,9.40
2023-04-18T09:56:28.150Z,9.80
2023-04-18T09:59:10.769Z,7.90
2023-04-18T10:04:09.824Z,7.90
2023-04-18T10:06:40.011Z,8.40
2023-04-18T10:09:09.345Z,7.90
2023-04-18T10:11:36.672Z,9.30
2023-04-18T10:14:07.061Z,9.80
2023-04-18T10:16:36.031Z,7.90
2023-04-18T10:19:27.361Z,9.80
2023-04-18T10:21:56.212Z,10.50
2023-04-18T10:24:48.330Z,8.80
2023-04-18T10:27:19.081Z,8.10
2023-04-18T10:29:50.728Z,8.70
2023-04-18T10:32:19.883Z,9.50
2023-04-18T10:34:47.989Z,9.10
2023-04-18T10:37:15.138Z,7.90
2023-04-18T10:39:56.317Z,8.50
2023-04-18T10:42:48.351Z,9.20
2023-04-18T10:45:25.631Z,9.10
2023-04-18T10:48:23.256Z,9.30
2023-04-18T10:51:16.435Z,8.30
2023-04-18T10:53:54.355Z,9.60
2023-04-18T10:56:26.327Z,10.10
2023-04-18T10:58:53.963Z,8.80
2023-04-18T11:01:28.613Z,8.90
2023-04-18T11:03:58.863Z,10.40
2023-04-18T11:06:29.099Z,9.90
2023-04-18T11:09:13.849Z,10.40
2023-04-18T11:11:41.849Z,8.60
2023-04-18T11:14:09.381Z,8.80
2023-04-18T11:16:36.628Z,9.50
2023-04-18T11:19:23.753Z,9.10
2023-04-18T11:21:51.549Z,10.00
2023-04-18T11:24:27.214Z,8.90
2023-04-18T11:26:56.062Z,12.10
2023-04-18T11:29:23.254Z,8.90
2023-04-18T11:31:54.050Z,11.20
2023-04-18T11:34:29.240Z,11.60
2023-04-18T11:36:56.148Z,9.70
2023-04-18T11:39:23.460Z,10.50
2023-04-18T11:41:51.050Z,11.50
2023-04-18T11:44:25.244Z,10.00
2023-04-18T11:46:55.546Z,10.60
2023-04-18T11:49:27.058Z,11.60
2023-04-18T11:51:54.379Z,11.30
2023-04-18T11:54:43.852Z,11.50
2023-04-18T11:57:30.869Z,10.40
2023-04-18T11:59:59.368Z,10.90
2023-04-18T12:02:28.353Z,11.40
2023-04-18T12:05:00.422Z,9.60
2023-04-18T12:07:46.068Z,11.20
2023-04-18T12:10:21.917Z,10.30
2023-04-18T12:12:50.102Z,11.80
2023-04-18T12:15:17.910Z,11.50
2023-04-18T12:17:48.610Z,12.40
2023-04-18T12:20:16.318Z,12.70
2023-04-18T12:22:49.721Z,11.80
2023-04-18T12:25:24.402Z,11.20
2023-04-18T12:27:58.243Z,11.90
2023-04-18T12:30:27.891Z,12.20
2023-04-18T12:32:57.373Z,14.80
2023-04-18T12:35:25.003Z,12.90
2023-04-18T12:37:57.899Z,12.20
2023-04-18T12:40:26.522Z,13.50
2023-04-18T12:42:54.443Z,12.60
2023-04-18T12:45:22.622Z,12.90
2023-04-18T12:47:51.817Z,14.70
2023-04-18T12:50:24.398Z,13.80
2023-04-18T12:52:55.826Z,14.20
2023-04-18T12:55:23.008Z,12.70
2023-04-18T12:57:54.532Z,14.60
2023-04-18T13:00:23.554Z,12.00
2023-04-18T13:02:52.603Z,12.70
2023-04-18T13:05:21.669Z,12.00
2023-04-18T13:07:49.871Z,12.80
2023-04-18T13:10:18.735Z,13.60
2023-04-18T13:12:46.587Z,14.00
2023-04-18T13:15:13.548Z,14.60
2023-04-18T13:17:40.646Z,14.30
2023-04-18T13:20:15.594Z,14.70
2023-04-18T13:22:45.762Z,13.70
2023-04-18T13:25:12.818Z,15.10
2023-04-18T13:27:41.904Z,14.70
2023-04-18T13:30:11.035Z,14.60
2023-04-18T13:32:39.404Z,15.50
2023-04-18T13:35:08.934Z,14.40
2023-04-18T13:37:36.259Z,13.60
2023-04-18T13:40:07.032Z,13.70
2023-04-18T13:42:34.593Z,14.40
2023-04-18T13:45:01.616Z,13.30
2023-04-18T13:47:29.832Z,15.20
2023-04-18T13:49:58.024Z,15.40
2023-04-18T13:52:26.283Z,13.90
2023-04-18T13:54:53.237Z,13.90
2023-04-18T13:57:20.295Z,14.80
2023-04-18T13:59:47.127Z,14.30
2023-04-18T14:02:14.575Z,13.00
2023-04-18T14:04:41.705Z,14.80
2023-04-18T14:07:09.282Z,13.50
2023-04-18T14:09:39.222Z,13.30
2023-04-18T14:12:08.413Z,15.50
2023-04-18T14:14:35.414Z,13.40
2023-04-18T14:17:02.224Z,13.70
2023-04-18T14:19:31.739Z,13.30
2023-04-18T14:21:58.598Z,13.70
2023-04-18T14:24:25.841Z,12.20
2023-04-18T14:26:55.141Z,13.60
2023-04-18T14:29:22.155Z,12.50
2023-04-18T14:31:48.999Z,13.50
2023-04-18T14:34:15.988Z,12.40
2023-04-18T14:36:42.844Z,11.20
2023-04-18T14:39:09.852Z,11.10
2023-04-18T14:41:36.745Z,13.00
2023-04-18T14:44:04.337Z,13.10
2023-04-18T14:46:31.615Z,12.80
2023-04-18T14:48:58.625Z,12.80
2023-04-18T14:51:26.316Z,12.00
2023-04-18T14:53:53.073Z,12.20
2023-04-18T14:56:21.718Z,12.90
2023-04-18T14:58:48.745Z,14.30
2023-04-18T15:01:17.628Z,12.90
2023-04-18T15:03:45.605Z,11.50
2023-04-18T15:06:12.600Z,11.90
2023-04-18T15:08:44.293Z,11.90
2023-04-18T15:11:11.338Z,13.10
2023-04-18T15:13:38.147Z,11.80
2023-04-18T15:16:05.756Z,11.70
2023-04-18T15:18:32.877Z,12.30
2023-04-18T15:21:00.377Z,12.50
2023-04-18T15:23:28.516Z,13.60
2023-04-18T15:25:55.602Z,13.60
2023-04-18T15:28:23.255Z,13.30
2023-04-18T15:30:50.124Z,13.70
2023-04-18T15:33:19.199Z,13.00
2023-04-18T15:35:49.144Z,12.80
2023-04-18T15:38:16.049Z,12.00
2023-04-18T15:40:43.723Z,11.70
2023-04-18T15:43:10.661Z,11.80
2023-04-18T15:45:37.502Z,11.80
2023-04-18T15:48:04.527Z,10.70
2023-04-18T15:50:33.421Z,12.60
2023-04-18T15:53:00.860Z,10.70
2023-04-18T15:55:30.797Z,11.10
2023-04-18T15:57:57.989Z,11.90
2023-04-18T16:00:24.938Z,11.20
2023-04-18T16:02:52.031Z,11.40
2023-04-18T16:05:19.124Z,10.50
2023-04-18T16:07:46.443Z,12.70
2023-04-18T16:10:15.398Z,14.60
2023-04-18T16:12:42.511Z,12.00
2023-04-18T16:15:10.513Z,12.10
2023-04-18T16:17:37.666Z,10.00
2023-04-18T16:20:09.396Z,11.00
2023-04-18T16:22:37.496Z,10.40
2023-04-18T16:25:05.418Z,11.40
2023-04-18T16:27:33.105Z,10.40
2023-04-18T16:29:59.918Z,10.50
2023-04-18T16:32:26.780Z,12.10
2023-04-18T16:34:53.694Z,11.20
2023-04-18T16:37:20.685Z,12.30
2023-04-18T16:39:47.471Z,10.30
2023-04-18T16:42:15.879Z,11.10
2023-04-18T16:44:44.825Z,10.90
2023-04-18T16:47:11.672Z,10.50
2023-04-18T16:49:39.214Z,11.20
2023-04-18T16:52:06.031Z,11.50
2023-04-18T16:54:33.071Z,10.50
2023-04-18T16:56:59.865Z,11.90
2023-04-18T16:59:26.711Z,12.00
2023-04-18T17:01:56.033Z,9.80
2023-04-18T17:04:29.260Z,9.20
2023-04-18T17:06:56.738Z,11.40
2023-04-18T17:09:24.260Z,11.30
2023-04-18T17:11:51.384Z,11.50
2023-04-18T17:14:21.069Z,10.50
2023-04-18T17:16:48.493Z,9.40
2023-04-18T17:19:18.897Z,10.90
2023-04-18T17:21:49.319Z,9.50
2023-04-18T17:24:19.207Z,10.60
2023-04-18T17:26:45.991Z,9.80
2023-04-18T17:29:12.958Z,13.00
2023-04-18T17:31:40.180Z,10.40
2023-04-18T17:34:07.651Z,11.30
2023-04-18T17:36:34.494Z,9.60
2023-04-18T17:39:07.467Z,9.60
2023-04-18T17:41:38.333Z,11.70
2023-04-18T17:44:07.522Z,10.80
2023-04-18T17:46:34.716Z,9.40
2023-04-18T17:49:04.731Z,10.50
2023-04-18T17:51:31.853Z,10.00
2023-04-18T17:53:58.616Z,10.30
2023-04-18T17:56:25.839Z,9.90
2023-04-18T17:58:54.694Z,11.40
2023-04-18T18:01:24.932Z,9.90
2023-04-18T18:03:54.201Z,9.60
2023-04-18T18:06:21.489Z,11.40
2023-04-18T18:08:48.810Z,10.30
2023-04-18T18:11:15.958Z,10.60
2023-04-18T18:13:46.796Z,10.20
2023-04-18T18:16:13.936Z,10.30
2023-04-18T18:18:40.902Z,10.70
2023-04-18T18:21:07.955Z,11.50
2023-04-18T18:23:34.794Z,9.80
2023-04-18T18:26:01.596Z,10.10
2023-04-18T18:28:28.996Z,10.20
2023-04-18T18:30:55.827Z,10.50
2023-04-18T18:33:22.797Z,11.60
2023-04-18T18:35:53.618Z,10.80
2023-04-18T18:38:20.413Z,9.80
2023-04-18T18:40:47.153Z,10.50
2023-04-18T18:43:13.968Z,10.40
2023-04-18T18:45:40.771Z,9.90
2023-04-18T18:48:07.926Z,9.50
2023-04-18T18:50:34.831Z,10.00
2023-04-18T18:53:02.067Z,10.70
2023-04-18T18:55:30.280Z,9.10
2023-04-18T18:58:00.105Z,10.10
2023-04-18T19:00:27.041Z,8.50
2023-04-18T19:02:54.012Z,10.10
2023-04-18T19:05:21.235Z,8.20
2023-04-18T19:07:48.493Z,8.70
2023-04-18T19:10:15.497Z,12.50
2023-04-18T19:12:42.322Z,8.90
2023-04-18T19:15:09.967Z,8.50
2023-04-18T19:17:36.819Z,9.70
2023-04-18T19:20:04.102Z,8.40
2023-04-18T19:22:31.234Z,8.70
2023-04-18T19:24:58.588Z,9.40
2023-04-18T19:27:25.423Z,9.50
2023-04-18T19:29:52.143Z,8.80
2023-04-18T19:32:19.034Z,8.90
2023-04-18T19:34:48.440Z,10.30
2023-04-18T19:37:15.415Z,9.60
2023-04-18T19:39:42.166Z,11.00
2023-04-18T19:42:09.011Z,10.20
2023-04-18T19:44:35.844Z,11.80
2023-04-18T19:47:02.662Z,10.60
2023-04-18T19:49:29.604Z,11.50
2023-04-18T19:51:56.567Z,9.70
2023-04-18T19:54:23.303Z,10.80
2023-04-18T19:56:50.392Z,9.30
2023-04-18T19:59:17.325Z,10.10
2023-04-18T20:01:44.203Z,10.60
2023-04-18T20:04:11.354Z,10.60
2023-04-18T20:06:38.276Z,8.50
2023-04-18T20:09:05.848Z,9.60
2023-04-18T20:14:25.734Z,9.70
2023-04-18T20:16:52.584Z,10.50
2023-04-18T20:19:19.837Z,9.50
2023-04-18T20:21:46.686Z,10.10
2023-04-18T20:24:13.839Z,9.50
2023-04-18T20:26:40.683Z,9.50
2023-04-18T20:29:12.654Z,9.00
2023-04-18T20:31:42.433Z,10.20
2023-04-18T20:34:10.092Z,12.20
2023-04-18T20:36:41.617Z,12.20
2023-04-18T20:39:09.189Z,9.50
2023-04-18T20:41:46.666Z,9.20
2023-04-18T20:44:14.192Z,9.20
2023-04-18T20:46:41.376Z,10.90
2023-04-18T20:49:09.240Z,10.50
2023-04-18T20:51:37.204Z,10.00
2023-04-18T20:54:05.191Z,9.80
2023-04-18T20:56:32.233Z,11.70
2023-04-18T20:58:59.190Z,10.00
2023-04-18T21:01:26.067Z,11.10
2023-04-18T21:03:53.426Z,12.70
2023-04-18T21:06:22.203Z,13.10
2023-04-18T21:08:49.380Z,9.40
2023-04-18T21:11:16.294Z,11.20
2023-04-18T21:13:43.126Z,10.00
2023-04-18T21:16:10.732Z,11.40
2023-04-18T21:18:37.838Z,10.00
2023-04-18T21:21:04.632Z,9.60
2023-04-18T21:23:31.540Z,9.20
2023-04-18T21:25:58.388Z,10.00
2023-04-18T21:28:25.234Z,9.80
2023-04-18T21:30:52.021Z,10.50
2023-04-18T21:33:19.472Z,10.50
2023-04-18T21:35:46.602Z,9.70
2023-04-18T21:38:14.049Z,11.80
2023-04-18T21:40:40.787Z,9.60
2023-04-18T21:43:11.428Z,10.30
2023-04-18T21:45:38.414Z,11.40
2023-04-18T21:48:05.820Z,11.40
2023-04-18T21:50:32.734Z,10.30
2023-04-18T21:52:59.525Z,9.60
2023-04-18T21:55:26.589Z,9.60
2023-04-18T21:57:54.473Z,9.50
2023-04-18T22:00:21.414Z,10.40
2023-04-18T22:02:48.424Z,9.70
2023-04-18T22:05:16.353Z,9.00
2023-04-18T22:07:54.454Z,10.60
2023-04-18T22:10:25.283Z,11.00
2023-04-18T22:12:54.204Z,11.70
2023-04-18T22:15:21.113Z,10.30
2023-04-18T22:17:50.334Z,11.70
2023-04-18T22:20:19.929Z,11.30
2023-04-18T22:22:46.747Z,9.70
2023-04-18T22:25:13.791Z,11.40
2023-04-18T22:27:45.314Z,10.30
2023-04-18T22:30:13.599Z,11.10
2023-04-18T22:32:43.290Z,11.40
2023-04-18T22:35:10.237Z,10.10
2023-04-18T22:37:37.006Z,12.10
2023-04-18T22:40:08.044Z,10.50
2023-04-18T22:42:36.156Z,10.60
2023-04-18T22:45:06.337Z,11.00
2023-04-18T22:47:33.646Z,9.70
2023-04-18T22:50:00.669Z,11.20
2023-04-18T22:52:27.598Z,10.20
2023-04-18T22:54:54.524Z,11.80
2023-04-18T22:57:23.523Z,11.00
2023-04-18T22:59:52.500Z,11.80
2023-04-18T23:02:19.541Z,10.80
2023-04-18T23:04:46.675Z,10.60
2023-04-18T23:07:13.679Z,9.60
2023-04-18T23:09:40.807Z,10.20
2023-04-18T23:12:07.885Z,12.00
2023-04-18T23:14:34.837Z,10.50
2023-04-18T23:17:02.920Z,12.80
2023-04-18T23:19:29.720Z,12.30
2023-04-18T23:21:56.426Z,11.60
2023-04-18T23:24:23.255Z,11.90
2023-04-18T23:26:50.105Z,10.50
2023-04-18T23:29:16.935Z,10.40
2023-04-18T23:31:43.937Z,10.10
2023-04-18T23:34:10.964Z,10.70
2023-04-18T23:36:37.701Z,12.20
2023-04-18T23:39:04.470Z,11.10
2023-04-18T23:41:31.285Z,13.90
2023-04-18T23:43:59.459Z,10.60
2023-04-18T23:46:28.170Z,11.00
2023-04-18T23:48:55.032Z,11.80
2023-04-18T23:51:21.950Z,10.80
2023-04-18T23:53:48.845Z,11.90
2023-04-18T23:56:15.996Z,11.70
2023-04-18T23:58:45.868Z,15.30
